sensor_id;sensor_type;location;lat;lon;timestamp;P1;durP1;ratioP1;P2;durP2;ratioP2
58972;SDS011;44750;52.040;7.472;2023-09-12T00:01:56;23.02;;;7.63;;
58972;SDS011;44750;52.040;7.472;2023-09-12T00:06:57;10.82;;;7.80;;
58972;SDS011;44750;52.040;7.472;2023-09-12T00:11:57;9.90;;;8.18;;
58972;SDS011;44750;52.040;7.472;2023-09-12T00:16:57;16.23;;;8.65;;
58972;SDS011;44750;52.040;7.472;2023-09-12T00:21:57;13.93;;;9.35;;
58972;SDS011;44750;52.040;7.472;2023-09-12T00:26:58;13.33;;;9.10;;
58972;SDS011;44750;52.040;7.472;2023-09-12T00:31:58;15.52;;;9.95;;
58972;SDS011;44750;52.040;7.472;2023-09-12T00:36:58;12.33;;;9.43;;
58972;SDS011;44750;52.040;7.472;2023-09-12T00:41:58;12.60;;;10.23;;
58972;SDS011;44750;52.040;7.472;2023-09-12T00:46:59;14.15;;;10.18;;
58972;SDS011;44750;52.040;7.472;2023-09-12T00:52:01;11.95;;;8.82;;
58972;SDS011;44750;52.040;7.472;2023-09-12T00:57:02;15.23;;;9.70;;
58972;SDS011;44750;52.040;7.472;2023-09-12T01:02:02;15.50;;;10.98;;
58972;SDS011;44750;52.040;7.472;2023-09-12T01:07:03;13.98;;;10.18;;
58972;SDS011;44750;52.040;7.472;2023-09-12T01:12:04;16.80;;;10.85;;
58972;SDS011;44750;52.040;7.472;2023-09-12T01:17:06;13.88;;;10.43;;
58972;SDS011;44750;52.040;7.472;2023-09-12T01:28:09;4.78;;;2.95;;
58972;SDS011;44750;52.040;7.472;2023-09-12T01:32:50;3.63;;;3.07;;
58972;SDS011;44750;52.040;7.472;2023-09-12T01:37:53;3.20;;;2.67;;
58972;SDS011;44750;52.040;7.472;2023-09-12T01:42:54;2.00;;;1.80;;
58972;SDS011;44750;52.040;7.472;2023-09-12T01:47:57;3.10;;;2.33;;
58972;SDS011;44750;52.040;7.472;2023-09-12T01:52:58;2.00;;;1.77;;
58972;SDS011;44750;52.040;7.472;2023-09-12T01:57:59;2.83;;;1.92;;
58972;SDS011;44750;52.040;7.472;2023-09-12T02:02:59;1.85;;;1.60;;
58972;SDS011;44750;52.040;7.472;2023-09-12T02:08:01;2.65;;;1.33;;
58972;SDS011;44750;52.040;7.472;2023-09-12T02:13:01;2.22;;;1.70;;
58972;SDS011;44750;52.040;7.472;2023-09-12T02:18:02;3.10;;;1.83;;
58972;SDS011;44750;52.040;7.472;2023-09-12T02:23:02;4.28;;;2.58;;
58972;SDS011;44750;52.040;7.472;2023-09-12T02:28:03;1.77;;;1.67;;
58972;SDS011;44750;52.040;7.472;2023-09-12T02:33:05;2.67;;;2.00;;
58972;SDS011;44750;52.040;7.472;2023-09-12T02:38:05;2.92;;;1.90;;
58972;SDS011;44750;52.040;7.472;2023-09-12T02:43:06;11.75;;;1.95;;
58972;SDS011;44750;52.040;7.472;2023-09-12T02:48:06;4.32;;;2.13;;
58972;SDS011;44750;52.040;7.472;2023-09-12T02:53:07;8.00;;;2.45;;
58972;SDS011;44750;52.040;7.472;2023-09-12T02:58:07;3.08;;;1.98;;
58972;SDS011;44750;52.040;7.472;2023-09-12T03:03:07;2.92;;;2.10;;
58972;SDS011;44750;52.040;7.472;2023-09-12T03:08:08;4.73;;;2.53;;
58972;SDS011;44750;52.040;7.472;2023-09-12T03:13:08;2.45;;;2.25;;
58972;SDS011;44750;52.040;7.472;2023-09-12T03:18:11;3.50;;;2.10;;
58972;SDS011;44750;52.040;7.472;2023-09-12T03:23:11;2.92;;;2.47;;
58972;SDS011;44750;52.040;7.472;2023-09-12T03:28:11;4.45;;;2.65;;
58972;SDS011;44750;52.040;7.472;2023-09-12T03:33:12;4.67;;;2.43;;
58972;SDS011;44750;52.040;7.472;2023-09-12T03:38:12;3.20;;;2.37;;
58972;SDS011;44750;52.040;7.472;2023-09-12T03:43:12;2.58;;;1.95;;
58972;SDS011;44750;52.040;7.472;2023-09-12T03:48:12;2.75;;;2.15;;
58972;SDS011;44750;52.040;7.472;2023-09-12T03:53:13;2.70;;;2.40;;
58972;SDS011;44750;52.040;7.472;2023-09-12T03:58:14;4.05;;;2.58;;
58972;SDS011;44750;52.040;7.472;2023-09-12T04:03:14;8.38;;;2.17;;
58972;SDS011;44750;52.040;7.472;2023-09-12T04:08:14;2.15;;;1.75;;
58972;SDS011;44750;52.040;7.472;2023-09-12T04:13:15;2.88;;;1.90;;
58972;SDS011;44750;52.040;7.472;2023-09-12T04:18:15;6.85;;;2.40;;
58972;SDS011;44750;52.040;7.472;2023-09-12T04:23:15;2.08;;;1.77;;
58972;SDS011;44750;52.040;7.472;2023-09-12T04:28:16;2.58;;;2.03;;
58972;SDS011;44750;52.040;7.472;2023-09-12T04:33:16;5.93;;;2.47;;
58972;SDS011;44750;52.040;7.472;2023-09-12T04:38:16;2.95;;;2.45;;
58972;SDS011;44750;52.040;7.472;2023-09-12T04:43:17;3.40;;;2.10;;
58972;SDS011;44750;52.040;7.472;2023-09-12T04:48:17;4.10;;;2.38;;
58972;SDS011;44750;52.040;7.472;2023-09-12T04:53:17;3.60;;;2.33;;
58972;SDS011;44750;52.040;7.472;2023-09-12T04:58:17;3.70;;;2.20;;
58972;SDS011;44750;52.040;7.472;2023-09-12T05:03:18;4.45;;;2.65;;
58972;SDS011;44750;52.040;7.472;2023-09-12T05:08:18;4.38;;;2.78;;
58972;SDS011;44750;52.040;7.472;2023-09-12T05:13:18;3.53;;;2.28;;
58972;SDS011;44750;52.040;7.472;2023-09-12T05:18:20;3.58;;;2.35;;
58972;SDS011;44750;52.040;7.472;2023-09-12T05:23:20;4.70;;;2.70;;
58972;SDS011;44750;52.040;7.472;2023-09-12T05:28:20;2.83;;;2.50;;
58972;SDS011;44750;52.040;7.472;2023-09-12T05:33:20;9.73;;;2.55;;
58972;SDS011;44750;52.040;7.472;2023-09-12T05:38:20;6.90;;;2.90;;
58972;SDS011;44750;52.040;7.472;2023-09-12T05:43:21;10.45;;;2.80;;
58972;SDS011;44750;52.040;7.472;2023-09-12T05:48:21;2.63;;;2.10;;
58972;SDS011;44750;52.040;7.472;2023-09-12T05:53:21;3.38;;;2.25;;
58972;SDS011;44750;52.040;7.472;2023-09-12T05:58:21;7.75;;;2.63;;
58972;SDS011;44750;52.040;7.472;2023-09-12T06:03:22;2.75;;;2.55;;
58972;SDS011;44750;52.040;7.472;2023-09-12T06:08:22;5.25;;;3.50;;
58972;SDS011;44750;52.040;7.472;2023-09-12T06:13:22;4.78;;;3.78;;
58972;SDS011;44750;52.040;7.472;2023-09-12T06:18:25;4.80;;;3.43;;
58972;SDS011;44750;52.040;7.472;2023-09-12T06:23:27;8.48;;;3.33;;
58972;SDS011;44750;52.040;7.472;2023-09-12T06:28:29;6.05;;;4.40;;
58972;SDS011;44750;52.040;7.472;2023-09-12T06:33:33;4.40;;;3.58;;
58972;SDS011;44750;52.040;7.472;2023-09-12T06:38:34;5.90;;;4.10;;
58972;SDS011;44750;52.040;7.472;2023-09-12T06:43:37;4.53;;;3.55;;
58972;SDS011;44750;52.040;7.472;2023-09-12T06:48:37;4.20;;;3.80;;
58972;SDS011;44750;52.040;7.472;2023-09-12T06:53:38;5.20;;;3.67;;
58972;SDS011;44750;52.040;7.472;2023-09-12T06:58:40;4.03;;;3.47;;
58972;SDS011;44750;52.040;7.472;2023-09-12T07:03:40;4.67;;;4.00;;
58972;SDS011;44750;52.040;7.472;2023-09-12T07:08:40;7.95;;;4.78;;
58972;SDS011;44750;52.040;7.472;2023-09-12T07:13:40;5.72;;;4.60;;
58972;SDS011;44750;52.040;7.472;2023-09-12T07:18:42;8.38;;;6.25;;
58972;SDS011;44750;52.040;7.472;2023-09-12T07:23:42;7.60;;;4.47;;
58972;SDS011;44750;52.040;7.472;2023-09-12T07:28:45;7.68;;;5.45;;
58972;SDS011;44750;52.040;7.472;2023-09-12T07:33:46;15.85;;;4.90;;
58972;SDS011;44750;52.040;7.472;2023-09-12T07:38:46;5.88;;;4.93;;
58972;SDS011;44750;52.040;7.472;2023-09-12T07:43:46;7.78;;;5.55;;
58972;SDS011;44750;52.040;7.472;2023-09-12T07:48:46;7.07;;;6.15;;
58972;SDS011;44750;52.040;7.472;2023-09-12T07:53:47;8.57;;;6.03;;
58972;SDS011;44750;52.040;7.472;2023-09-12T07:58:48;6.83;;;6.17;;
58972;SDS011;44750;52.040;7.472;2023-09-12T08:03:48;8.07;;;6.70;;
58972;SDS011;44750;52.040;7.472;2023-09-12T08:08:49;9.47;;;6.20;;
58972;SDS011;44750;52.040;7.472;2023-09-12T08:13:49;7.82;;;5.88;;
58972;SDS011;44750;52.040;7.472;2023-09-12T08:18:49;7.78;;;6.50;;
58972;SDS011;44750;52.040;7.472;2023-09-12T08:23:49;7.35;;;5.97;;
58972;SDS011;44750;52.040;7.472;2023-09-12T08:28:51;9.23;;;6.57;;
58972;SDS011;44750;52.040;7.472;2023-09-12T08:33:51;8.18;;;6.13;;
58972;SDS011;44750;52.040;7.472;2023-09-12T08:38:51;6.33;;;5.73;;
58972;SDS011;44750;52.040;7.472;2023-09-12T08:43:52;8.15;;;5.90;;
58972;SDS011;44750;52.040;7.472;2023-09-12T08:48:55;6.05;;;5.45;;
58972;SDS011;44750;52.040;7.472;2023-09-12T08:53:56;9.40;;;5.72;;
58972;SDS011;44750;52.040;7.472;2023-09-12T08:58:56;7.17;;;5.77;;
58972;SDS011;44750;52.040;7.472;2023-09-12T09:03:57;13.43;;;6.10;;
58972;SDS011;44750;52.040;7.472;2023-09-12T09:08:58;6.83;;;6.13;;
58972;SDS011;44750;52.040;7.472;2023-09-12T09:14:02;8.63;;;6.13;;
58972;SDS011;44750;52.040;7.472;2023-09-12T09:19:05;8.48;;;5.72;;
58972;SDS011;44750;52.040;7.472;2023-09-12T09:24:07;8.80;;;7.00;;
58972;SDS011;44750;52.040;7.472;2023-09-12T09:29:10;7.88;;;6.07;;
58972;SDS011;44750;52.040;7.472;2023-09-12T09:34:34;9.77;;;7.22;;
58972;SDS011;44750;52.040;7.472;2023-09-12T09:39:39;8.50;;;5.97;;
58972;SDS011;44750;52.040;7.472;2023-09-12T09:44:39;7.05;;;4.70;;
58972;SDS011;44750;52.040;7.472;2023-09-12T09:49:39;6.90;;;4.53;;
58972;SDS011;44750;52.040;7.472;2023-09-12T09:54:45;8.23;;;4.73;;
58972;SDS011;44750;52.040;7.472;2023-09-12T09:59:49;5.65;;;4.35;;
58972;SDS011;44750;52.040;7.472;2023-09-12T10:04:52;6.25;;;4.10;;
58972;SDS011;44750;52.040;7.472;2023-09-12T10:09:54;5.28;;;3.97;;
58972;SDS011;44750;52.040;7.472;2023-09-12T10:15:01;5.25;;;4.50;;
58972;SDS011;44750;52.040;7.472;2023-09-12T10:20:03;5.22;;;4.25;;
58972;SDS011;44750;52.040;7.472;2023-09-12T10:25:08;5.45;;;3.33;;
58972;SDS011;44750;52.040;7.472;2023-09-12T10:30:10;3.45;;;2.95;;
58972;SDS011;44750;52.040;7.472;2023-09-12T10:35:10;2.97;;;2.58;;
58972;SDS011;44750;52.040;7.472;2023-09-12T10:40:11;4.20;;;2.23;;
58972;SDS011;44750;52.040;7.472;2023-09-12T10:45:12;4.72;;;2.67;;
58972;SDS011;44750;52.040;7.472;2023-09-12T10:50:13;4.07;;;2.90;;
58972;SDS011;44750;52.040;7.472;2023-09-12T10:55:17;2.75;;;2.55;;
58972;SDS011;44750;52.040;7.472;2023-09-12T11:00:18;3.45;;;2.53;;
58972;SDS011;44750;52.040;7.472;2023-09-12T11:10:28;5.07;;;3.20;;
58972;SDS011;44750;52.040;7.472;2023-09-12T11:21:07;2.90;;;2.40;;
58972;SDS011;44750;52.040;7.472;2023-09-12T11:26:06;2.75;;;2.40;;
58972;SDS011;44750;52.040;7.472;2023-09-12T11:31:07;5.95;;;2.28;;
58972;SDS011;44750;52.040;7.472;2023-09-12T11:36:07;4.70;;;2.30;;
58972;SDS011;44750;52.040;7.472;2023-09-12T11:41:38;2.00;;;1.80;;
58972;SDS011;44750;52.040;7.472;2023-09-12T11:46:57;3.95;;;2.35;;
58972;SDS011;44750;52.040;7.472;2023-09-12T11:52:19;2.67;;;1.80;;
58972;SDS011;44750;52.040;7.472;2023-09-12T11:57:20;3.13;;;2.35;;
58972;SDS011;44750;52.040;7.472;2023-09-12T12:02:20;2.27;;;2.07;;
58972;SDS011;44750;52.040;7.472;2023-09-12T12:07:20;6.93;;;2.70;;
58972;SDS011;44750;52.040;7.472;2023-09-12T12:12:21;4.47;;;2.30;;
58972;SDS011;44750;52.040;7.472;2023-09-12T12:17:22;3.20;;;2.33;;
58972;SDS011;44750;52.040;7.472;2023-09-12T12:22:25;2.70;;;1.98;;
58972;SDS011;44750;52.040;7.472;2023-09-12T12:27:27;5.88;;;2.40;;
58972;SDS011;44750;52.040;7.472;2023-09-12T12:32:28;3.90;;;1.95;;
58972;SDS011;44750;52.040;7.472;2023-09-12T12:37:28;8.35;;;2.45;;
58972;SDS011;44750;52.040;7.472;2023-09-12T12:42:33;3.03;;;2.10;;
58972;SDS011;44750;52.040;7.472;2023-09-12T12:47:34;6.03;;;3.08;;
58972;SDS011;44750;52.040;7.472;2023-09-12T12:52:35;3.28;;;2.10;;
58972;SDS011;44750;52.040;7.472;2023-09-12T12:57:39;2.60;;;1.95;;
58972;SDS011;44750;52.040;7.472;2023-09-12T13:02:42;2.05;;;1.85;;
58972;SDS011;44750;52.040;7.472;2023-09-12T13:07:43;8.05;;;2.35;;
58972;SDS011;44750;52.040;7.472;2023-09-12T13:12:45;4.72;;;2.22;;
58972;SDS011;44750;52.040;7.472;2023-09-12T13:17:45;3.07;;;2.07;;
58972;SDS011;44750;52.040;7.472;2023-09-12T13:22:45;2.00;;;1.67;;
58972;SDS011;44750;52.040;7.472;2023-09-12T13:27:45;1.70;;;1.60;;
58972;SDS011;44750;52.040;7.472;2023-09-12T13:32:46;2.22;;;1.65;;
58972;SDS011;44750;52.040;7.472;2023-09-12T13:37:46;4.25;;;2.00;;
58972;SDS011;44750;52.040;7.472;2023-09-12T13:42:46;1.83;;;1.17;;
58972;SDS011;44750;52.040;7.472;2023-09-12T13:47:47;2.28;;;1.40;;
58972;SDS011;44750;52.040;7.472;2023-09-12T13:52:48;2.22;;;1.55;;
58972;SDS011;44750;52.040;7.472;2023-09-12T13:57:48;1.80;;;1.55;;
58972;SDS011;44750;52.040;7.472;2023-09-12T14:02:49;1.58;;;1.48;;
58972;SDS011;44750;52.040;7.472;2023-09-12T14:07:50;1.73;;;1.60;;
58972;SDS011;44750;52.040;7.472;2023-09-12T14:12:52;1.98;;;1.50;;
58972;SDS011;44750;52.040;7.472;2023-09-12T14:17:52;2.13;;;1.60;;
58972;SDS011;44750;52.040;7.472;2023-09-12T14:22:52;2.25;;;1.33;;
58972;SDS011;44750;52.040;7.472;2023-09-12T14:27:52;2.45;;;1.70;;
58972;SDS011;44750;52.040;7.472;2023-09-12T14:32:53;3.50;;;2.15;;
58972;SDS011;44750;52.040;7.472;2023-09-12T14:37:53;2.53;;;1.67;;
58972;SDS011;44750;52.040;7.472;2023-09-12T14:42:53;2.88;;;1.30;;
58972;SDS011;44750;52.040;7.472;2023-09-12T14:47:54;3.38;;;1.67;;
58972;SDS011;44750;52.040;7.472;2023-09-12T14:52:54;3.15;;;1.70;;
58972;SDS011;44750;52.040;7.472;2023-09-12T14:57:55;2.92;;;1.90;;
58972;SDS011;44750;52.040;7.472;2023-09-12T15:02:55;1.58;;;1.45;;
58972;SDS011;44750;52.040;7.472;2023-09-12T15:07:55;1.83;;;1.58;;
58972;SDS011;44750;52.040;7.472;2023-09-12T15:12:56;4.00;;;1.80;;
58972;SDS011;44750;52.040;7.472;2023-09-12T15:17:56;2.50;;;1.73;;
58972;SDS011;44750;52.040;7.472;2023-09-12T15:22:56;2.90;;;1.75;;
58972;SDS011;44750;52.040;7.472;2023-09-12T15:27:56;2.92;;;1.90;;
58972;SDS011;44750;52.040;7.472;2023-09-12T15:32:57;2.75;;;1.75;;
58972;SDS011;44750;52.040;7.472;2023-09-12T15:37:57;2.40;;;1.95;;
58972;SDS011;44750;52.040;7.472;2023-09-12T15:42:57;2.40;;;1.80;;
58972;SDS011;44750;52.040;7.472;2023-09-12T15:47:58;3.75;;;2.25;;
58972;SDS011;44750;52.040;7.472;2023-09-12T15:52:58;3.80;;;2.05;;
58972;SDS011;44750;52.040;7.472;2023-09-12T15:57:58;4.43;;;2.10;;
58972;SDS011;44750;52.040;7.472;2023-09-12T16:02:58;2.25;;;1.80;;
58972;SDS011;44750;52.040;7.472;2023-09-12T16:07:59;2.38;;;1.65;;
58972;SDS011;44750;52.040;7.472;2023-09-12T16:12:59;4.40;;;2.10;;
58972;SDS011;44750;52.040;7.472;2023-09-12T16:17:59;1.88;;;1.75;;
58972;SDS011;44750;52.040;7.472;2023-09-12T16:22:59;3.30;;;2.40;;
58972;SDS011;44750;52.040;7.472;2023-09-12T16:27:59;2.28;;;2.08;;
58972;SDS011;44750;52.040;7.472;2023-09-12T16:33:01;2.50;;;2.05;;
58972;SDS011;44750;52.040;7.472;2023-09-12T16:38:01;2.47;;;1.58;;
58972;SDS011;44750;52.040;7.472;2023-09-12T16:43:01;2.83;;;2.03;;
58972;SDS011;44750;52.040;7.472;2023-09-12T16:48:05;3.93;;;1.90;;
58972;SDS011;44750;52.040;7.472;2023-09-12T16:53:05;2.15;;;1.70;;
58972;SDS011;44750;52.040;7.472;2023-09-12T16:58:05;5.40;;;2.10;;
58972;SDS011;44750;52.040;7.472;2023-09-12T17:03:05;3.33;;;2.47;;
58972;SDS011;44750;52.040;7.472;2023-09-12T17:08:06;1.88;;;1.70;;
58972;SDS011;44750;52.040;7.472;2023-09-12T17:13:06;3.55;;;1.80;;
58972;SDS011;44750;52.040;7.472;2023-09-12T17:18:06;7.55;;;1.88;;
58972;SDS011;44750;52.040;7.472;2023-09-12T17:23:06;3.13;;;2.40;;
58972;SDS011;44750;52.040;7.472;2023-09-12T17:28:07;3.63;;;2.47;;
58972;SDS011;44750;52.040;7.472;2023-09-12T17:33:07;4.32;;;2.65;;
58972;SDS011;44750;52.040;7.472;2023-09-12T17:38:07;5.50;;;2.50;;
58972;SDS011;44750;52.040;7.472;2023-09-12T17:43:07;4.53;;;2.92;;
58972;SDS011;44750;52.040;7.472;2023-09-12T17:48:07;2.83;;;2.53;;
58972;SDS011;44750;52.040;7.472;2023-09-12T17:53:08;3.42;;;2.50;;
58972;SDS011;44750;52.040;7.472;2023-09-12T17:58:08;4.30;;;3.10;;
58972;SDS011;44750;52.040;7.472;2023-09-12T18:03:09;3.40;;;2.58;;
58972;SDS011;44750;52.040;7.472;2023-09-12T18:08:10;3.80;;;2.80;;
58972;SDS011;44750;52.040;7.472;2023-09-12T18:13:10;3.53;;;2.90;;
58972;SDS011;44750;52.040;7.472;2023-09-12T18:18:10;3.00;;;2.63;;
58972;SDS011;44750;52.040;7.472;2023-09-12T18:23:10;3.33;;;2.42;;
58972;SDS011;44750;52.040;7.472;2023-09-12T18:28:10;3.85;;;3.08;;
58972;SDS011;44750;52.040;7.472;2023-09-12T18:33:11;3.45;;;2.85;;
58972;SDS011;44750;52.040;7.472;2023-09-12T18:38:11;3.00;;;2.47;;
58972;SDS011;44750;52.040;7.472;2023-09-12T18:43:11;4.53;;;2.72;;
58972;SDS011;44750;52.040;7.472;2023-09-12T18:48:11;4.47;;;3.00;;
58972;SDS011;44750;52.040;7.472;2023-09-12T18:53:12;13.03;;;2.50;;
58972;SDS011;44750;52.040;7.472;2023-09-12T18:58:13;3.22;;;2.92;;
58972;SDS011;44750;52.040;7.472;2023-09-12T19:03:13;3.97;;;3.20;;
58972;SDS011;44750;52.040;7.472;2023-09-12T19:08:15;3.47;;;3.00;;
58972;SDS011;44750;52.040;7.472;2023-09-12T19:13:15;4.93;;;3.15;;
58972;SDS011;44750;52.040;7.472;2023-09-12T19:18:15;3.53;;;2.80;;
58972;SDS011;44750;52.040;7.472;2023-09-12T19:23:15;4.05;;;2.85;;
58972;SDS011;44750;52.040;7.472;2023-09-12T19:28:16;3.17;;;2.85;;
58972;SDS011;44750;52.040;7.472;2023-09-12T19:33:16;3.00;;;2.70;;
58972;SDS011;44750;52.040;7.472;2023-09-12T19:38:16;4.03;;;2.63;;
58972;SDS011;44750;52.040;7.472;2023-09-12T19:43:16;4.68;;;3.22;;
58972;SDS011;44750;52.040;7.472;2023-09-12T19:48:16;3.85;;;2.72;;
58972;SDS011;44750;52.040;7.472;2023-09-12T19:53:17;2.58;;;2.38;;
58972;SDS011;44750;52.040;7.472;2023-09-12T19:58:19;3.55;;;2.17;;
58972;SDS011;44750;52.040;7.472;2023-09-12T20:03:19;5.32;;;3.88;;
58972;SDS011;44750;52.040;7.472;2023-09-12T20:08:20;7.97;;;3.15;;
58972;SDS011;44750;52.040;7.472;2023-09-12T20:13:20;3.75;;;3.22;;
58972;SDS011;44750;52.040;7.472;2023-09-12T20:18:20;4.07;;;3.25;;
58972;SDS011;44750;52.040;7.472;2023-09-12T20:23:20;7.13;;;4.68;;
58972;SDS011;44750;52.040;7.472;2023-09-12T20:28:20;6.55;;;4.10;;
58972;SDS011;44750;52.040;7.472;2023-09-12T20:33:21;5.05;;;4.18;;
58972;SDS011;44750;52.040;7.472;2023-09-12T20:38:21;4.35;;;3.92;;
58972;SDS011;44750;52.040;7.472;2023-09-12T20:43:21;4.00;;;3.60;;
58972;SDS011;44750;52.040;7.472;2023-09-12T20:48:22;5.40;;;3.97;;
58972;SDS011;44750;52.040;7.472;2023-09-12T20:53:22;7.13;;;4.03;;
58972;SDS011;44750;52.040;7.472;2023-09-12T20:58:22;5.40;;;4.25;;
58972;SDS011;44750;52.040;7.472;2023-09-12T21:03:22;7.22;;;4.00;;
58972;SDS011;44750;52.040;7.472;2023-09-12T21:08:22;6.07;;;4.38;;
58972;SDS011;44750;52.040;7.472;2023-09-12T21:13:23;5.13;;;3.80;;
58972;SDS011;44750;52.040;7.472;2023-09-12T21:18:23;5.73;;;4.57;;
58972;SDS011;44750;52.040;7.472;2023-09-12T21:23:23;4.93;;;4.38;;
58972;SDS011;44750;52.040;7.472;2023-09-12T21:28:23;5.68;;;4.75;;
58972;SDS011;44750;52.040;7.472;2023-09-12T21:33:24;7.90;;;4.55;;
58972;SDS011;44750;52.040;7.472;2023-09-12T21:38:24;7.50;;;4.80;;
58972;SDS011;44750;52.040;7.472;2023-09-12T21:43:25;7.00;;;4.47;;
58972;SDS011;44750;52.040;7.472;2023-09-12T21:48:26;6.85;;;4.53;;
58972;SDS011;44750;52.040;7.472;2023-09-12T21:53:26;5.05;;;4.50;;
58972;SDS011;44750;52.040;7.472;2023-09-12T21:58:26;7.07;;;4.38;;
58972;SDS011;44750;52.040;7.472;2023-09-12T22:03:26;7.03;;;4.47;;
58972;SDS011;44750;52.040;7.472;2023-09-12T22:08:27;8.75;;;5.38;;
58972;SDS011;44750;52.040;7.472;2023-09-12T22:13:27;8.18;;;4.65;;
58972;SDS011;44750;52.040;7.472;2023-09-12T22:18:27;4.80;;;4.30;;
58972;SDS011;44750;52.040;7.472;2023-09-12T22:23:28;5.22;;;4.32;;
58972;SDS011;44750;52.040;7.472;2023-09-12T22:28:28;9.18;;;5.25;;
58972;SDS011;44750;52.040;7.472;2023-09-12T22:33:28;5.93;;;5.15;;
58972;SDS011;44750;52.040;7.472;2023-09-12T22:38:28;7.00;;;5.38;;
58972;SDS011;44750;52.040;7.472;2023-09-12T22:43:29;8.90;;;5.72;;
58972;SDS011;44750;52.040;7.472;2023-09-12T22:48:29;8.32;;;5.60;;
58972;SDS011;44750;52.040;7.472;2023-09-12T22:53:30;9.70;;;5.25;;
58972;SDS011;44750;52.040;7.472;2023-09-12T22:58:30;27.20;;;5.82;;
58972;SDS011;44750;52.040;7.472;2023-09-12T23:03:30;6.40;;;5.78;;
58972;SDS011;44750;52.040;7.472;2023-09-12T23:08:30;14.15;;;5.65;;
58972;SDS011;44750;52.040;7.472;2023-09-12T23:13:32;5.40;;;4.88;;
58972;SDS011;44750;52.040;7.472;2023-09-12T23:18:32;17.65;;;6.65;;
58972;SDS011;44750;52.040;7.472;2023-09-12T23:23:32;7.38;;;5.72;;
58972;SDS011;44750;52.040;7.472;2023-09-12T23:28:33;7.72;;;5.82;;
58972;SDS011;44750;52.040;7.472;2023-09-12T23:33:33;6.05;;;5.40;;
58972;SDS011;44750;52.040;7.472;2023-09-12T23:38:33;9.60;;;5.35;;
58972;SDS011;44750;52.040;7.472;2023-09-12T23:43:35;10.75;;;5.65;;
58972;SDS011;44750;52.040;7.472;2023-09-12T23:48:35;10.00;;;5.95;;
58972;SDS011;44750;52.040;7.472;2023-09-12T23:53:35;7.82;;;5.03;;
58972;SDS011;44750;52.040;7.472;2023-09-12T23:58:35;6.68;;;5.55;;
